createdAt,value
2022-08-22T00:00:11.819Z,18.70
2022-08-22T00:02:42.499Z,20.70
2022-08-22T00:02:48.332Z,20.60
2022-08-22T00:03:00.574Z,19.70
2022-08-22T00:06:11.644Z,18.80
2022-08-22T00:09:11.500Z,18.70
2022-08-22T00:11:49.023Z,18.70
2022-08-22T00:14:27.338Z,18.70
2022-08-22T00:17:05.139Z,18.70
2022-08-22T00:20:28.076Z,18.70
2022-08-22T00:23:17.218Z,18.70
2022-08-22T00:26:03.238Z,18.70
2022-08-22T00:28:51.584Z,18.70
2022-08-22T00:31:42.632Z,18.60
2022-08-22T00:34:23.783Z,18.60
2022-08-22T00:37:09.699Z,18.60
2022-08-22T00:39:45.023Z,18.50
2022-08-22T00:42:31.841Z,18.50
2022-08-22T00:45:13.811Z,18.50
2022-08-22T00:47:54.241Z,18.50
2022-08-22T00:50:39.988Z,18.50
2022-08-22T00:53:23.789Z,18.60
2022-08-22T00:56:15.229Z,18.50
2022-08-22T07:37:01.656Z,19.10
2022-08-22T07:39:40.580Z,19.10
2022-08-22T07:42:10.807Z,19.30
2022-08-22T07:45:05.498Z,19.30
2022-08-22T07:48:02.986Z,19.50
2022-08-22T07:50:37.583Z,19.60
2022-08-22T07:53:21.611Z,19.70
2022-08-22T07:55:49.990Z,19.80
2022-08-22T07:58:18.078Z,19.90
2022-08-22T08:00:46.867Z,19.90
2022-08-22T08:03:14.210Z,20.00
2022-08-22T08:05:44.227Z,20.00
2022-08-22T08:08:31.166Z,20.20
2022-08-22T08:11:00.557Z,20.20
2022-08-22T08:13:35.288Z,20.20
2022-08-22T08:16:04.975Z,20.30
2022-08-22T08:18:35.823Z,20.40
2022-08-22T08:21:09.211Z,20.50
2022-08-22T08:23:42.756Z,20.50
2022-08-22T08:26:20.008Z,20.60
2022-08-22T08:28:52.063Z,20.70
2022-08-22T08:31:32.136Z,20.90
2022-08-22T08:34:11.954Z,20.90
2022-08-22T08:37:12.772Z,21.00
2022-08-22T08:39:44.919Z,21.10
2022-08-22T08:42:58.150Z,21.30
2022-08-22T08:45:59.403Z,21.50
2022-08-22T08:48:49.944Z,21.60
2022-08-22T08:51:52.222Z,21.70
2022-08-22T08:54:34.412Z,21.60
2022-08-22T08:57:16.528Z,21.80
2022-08-22T09:00:12.280Z,22.00
2022-08-22T09:03:06.981Z,22.00
2022-08-22T09:06:02.154Z,21.90
2022-08-22T09:08:46.147Z,22.20
2022-08-22T09:11:40.895Z,22.30
2022-08-22T09:14:26.363Z,22.30
2022-08-22T09:17:18.593Z,22.40
2022-08-22T09:20:17.974Z,22.20
2022-08-22T09:23:29.727Z,22.60
2022-08-22T09:26:18.012Z,22.70
2022-08-22T09:28:53.601Z,23.00
2022-08-22T09:31:33.095Z,23.00
2022-08-22T09:34:43.606Z,22.90
2022-08-22T09:37:26.919Z,23.10
2022-08-22T09:43:11.041Z,23.20
2022-08-22T09:45:47.242Z,23.30
2022-08-22T09:48:47.370Z,23.50
2022-08-22T09:51:34.802Z,23.50
2022-08-22T09:54:11.071Z,23.90
2022-08-22T09:56:57.082Z,23.70
2022-08-22T09:59:46.836Z,23.90
2022-08-22T10:02:37.231Z,23.80
2022-08-22T10:05:41.080Z,24.00
2022-08-22T10:08:33.067Z,24.20
2022-08-22T10:11:20.190Z,24.00
2022-08-22T10:14:00.669Z,24.30
2022-08-22T10:16:31.005Z,24.40
2022-08-22T10:19:24.647Z,24.40
2022-08-22T10:22:14.928Z,24.50
2022-08-22T10:24:58.619Z,24.40
2022-08-22T10:27:58.812Z,24.60
2022-08-22T10:30:33.418Z,24.70
2022-08-22T10:33:23.913Z,24.70
2022-08-22T10:35:51.000Z,24.80
2022-08-22T10:38:49.157Z,25.00
2022-08-22T10:41:23.273Z,25.10
2022-08-22T10:43:56.593Z,25.20
2022-08-22T10:46:49.199Z,25.10
2022-08-22T10:49:35.516Z,25.00
2022-08-22T10:52:20.371Z,25.30
2022-08-22T10:54:55.287Z,25.40
2022-08-22T10:57:25.314Z,25.40
2022-08-22T11:00:13.244Z,25.60
2022-08-22T11:02:47.283Z,25.80
2022-08-22T11:05:14.196Z,26.00
2022-08-22T11:07:48.558Z,25.70
2022-08-22T11:10:34.950Z,26.20
2022-08-22T11:13:26.453Z,26.20
2022-08-22T11:16:04.201Z,26.40
2022-08-22T11:19:03.061Z,26.20
2022-08-22T11:21:47.780Z,26.60
2022-08-22T11:24:53.902Z,26.70
2022-08-22T11:27:39.949Z,26.80
2022-08-22T11:30:18.559Z,26.70
2022-08-22T11:33:04.722Z,26.40
2022-08-22T11:35:50.563Z,26.30
2022-08-22T11:38:36.186Z,26.00
2022-08-22T11:41:12.825Z,26.20
2022-08-22T11:43:53.769Z,26.70
2022-08-22T11:46:29.026Z,26.40
2022-08-22T11:49:27.274Z,26.40
2022-08-22T11:52:12.171Z,26.30
2022-08-22T11:55:19.680Z,26.40
2022-08-22T11:57:57.558Z,26.30
2022-08-22T12:00:32.490Z,26.40
2022-08-22T12:03:19.614Z,26.30
2022-08-22T12:06:00.389Z,26.40
2022-08-22T12:08:30.491Z,26.80
2022-08-22T12:11:06.142Z,26.80
2022-08-22T12:14:18.342Z,27.10
2022-08-22T12:16:48.769Z,27.10
2022-08-22T12:19:48.923Z,27.30
2022-08-22T12:22:58.753Z,27.10
2022-08-22T12:25:34.743Z,27.00
2022-08-22T12:28:39.958Z,27.00
2022-08-22T12:31:38.131Z,26.60
2022-08-22T12:34:23.697Z,26.20
2022-08-22T12:37:03.658Z,26.40
2022-08-22T12:40:01.159Z,26.50
2022-08-22T12:43:06.503Z,26.40
2022-08-22T12:45:42.611Z,26.50
2022-08-22T12:48:36.711Z,26.20
2022-08-22T12:51:33.546Z,26.40
2022-08-22T12:54:27.827Z,26.30
2022-08-22T12:57:23.745Z,26.20
2022-08-22T12:59:58.131Z,26.20
2022-08-22T13:02:27.994Z,26.30
2022-08-22T13:04:59.945Z,26.40
2022-08-22T13:07:35.904Z,26.40
2022-08-22T13:10:14.947Z,26.70
2022-08-22T13:12:48.638Z,26.60
2022-08-22T13:15:41.937Z,26.70
2022-08-22T13:18:30.286Z,26.70
2022-08-22T13:21:02.002Z,26.70
2022-08-22T13:23:39.835Z,26.70
2022-08-22T13:26:11.653Z,26.80
2022-08-22T13:29:15.265Z,26.60
2022-08-22T13:31:44.572Z,26.80
2022-08-22T13:34:22.879Z,27.00
2022-08-22T13:36:55.450Z,27.10
2022-08-22T13:39:30.279Z,27.20
2022-08-22T13:42:00.605Z,27.30
2022-08-22T13:44:40.240Z,27.50
2022-08-22T13:47:31.601Z,27.30
2022-08-22T13:50:19.390Z,27.20
2022-08-22T13:52:58.518Z,27.40
2022-08-22T13:55:55.269Z,27.60
2022-08-22T13:58:40.350Z,27.50
2022-08-22T14:01:15.174Z,27.60
2022-08-22T14:03:48.640Z,28.30
2022-08-22T14:06:41.193Z,28.70
2022-08-22T14:09:29.563Z,29.20
2022-08-22T14:12:27.529Z,29.80
2022-08-22T14:15:03.506Z,29.70
2022-08-22T14:17:42.909Z,29.40
2022-08-22T14:20:10.982Z,29.60
2022-08-22T14:22:40.804Z,29.80
2022-08-22T14:25:17.066Z,30.00
2022-08-22T14:27:51.120Z,30.00
2022-08-22T14:30:21.932Z,30.00
2022-08-22T14:33:22.656Z,30.40
2022-08-22T14:35:57.287Z,30.60
2022-08-22T14:38:35.297Z,30.70
2022-08-22T14:41:06.742Z,30.60
2022-08-22T14:43:51.092Z,30.70
2022-08-22T14:46:27.772Z,31.20
2022-08-22T14:49:14.468Z,31.20
2022-08-22T14:51:50.793Z,31.40
2022-08-22T14:54:22.220Z,31.00
2022-08-22T14:56:51.692Z,31.00
2022-08-22T14:59:40.340Z,31.20
2022-08-22T15:02:26.438Z,31.20
2022-08-22T15:04:55.112Z,31.30
2022-08-22T15:07:32.312Z,31.00
2022-08-22T15:10:06.216Z,31.00
2022-08-22T15:12:40.105Z,30.50
2022-08-22T15:15:26.215Z,30.40
2022-08-22T15:17:53.672Z,30.30
2022-08-22T15:20:35.656Z,30.20
2022-08-22T15:23:16.535Z,29.90
2022-08-22T15:25:47.051Z,29.60
2022-08-22T15:28:20.205Z,29.40
2022-08-22T15:30:56.945Z,29.30
2022-08-22T15:33:26.017Z,29.50
2022-08-22T15:36:15.823Z,29.40
2022-08-22T15:38:48.470Z,29.40
2022-08-22T15:41:36.510Z,29.20
2022-08-22T15:44:06.726Z,29.30
2022-08-22T15:46:39.570Z,29.20
2022-08-22T15:49:11.700Z,29.10
2022-08-22T15:52:03.409Z,29.40
2022-08-22T15:54:57.050Z,29.20
2022-08-22T15:57:32.310Z,29.20
2022-08-22T16:00:20.985Z,29.00
2022-08-22T16:02:59.845Z,29.10
2022-08-22T16:05:41.380Z,29.30
2022-08-22T16:08:20.722Z,29.30
2022-08-22T16:10:53.593Z,29.20
2022-08-22T16:13:26.984Z,29.10
2022-08-22T16:16:31.106Z,29.10
2022-08-22T16:18:57.943Z,28.90
2022-08-22T16:21:25.504Z,28.90
2022-08-22T16:23:56.863Z,28.60
2022-08-22T16:26:29.437Z,28.60
2022-08-22T16:29:21.074Z,28.60
2022-08-22T16:31:47.921Z,28.80
2022-08-22T16:34:17.912Z,28.30
2022-08-22T16:37:02.986Z,28.40
2022-08-22T16:39:38.796Z,28.40
2022-08-22T16:42:15.726Z,28.20
2022-08-22T16:44:55.144Z,28.10
2022-08-22T16:47:30.074Z,27.90
2022-08-22T16:49:59.887Z,28.00
2022-08-22T16:52:26.874Z,28.00
2022-08-22T16:55:03.862Z,28.00
2022-08-22T16:58:06.147Z,27.60
2022-08-22T17:00:58.061Z,27.80
2022-08-22T17:03:45.750Z,27.70
2022-08-22T17:06:32.566Z,27.60
2022-08-22T17:09:30.326Z,27.60
2022-08-22T17:12:15.306Z,27.50
2022-08-22T17:15:17.774Z,27.30
2022-08-22T17:18:11.876Z,27.30
2022-08-22T17:21:17.200Z,27.30
2022-08-22T17:23:55.744Z,27.30
2022-08-22T17:26:54.302Z,27.10
2022-08-22T17:29:49.317Z,27.20
2022-08-22T17:32:21.876Z,27.00
2022-08-22T17:35:19.039Z,27.00
2022-08-22T17:38:17.632Z,27.00
2022-08-22T17:41:11.602Z,27.00
2022-08-22T17:44:02.711Z,26.80
2022-08-22T17:46:50.843Z,26.70
2022-08-22T17:49:29.786Z,26.60
2022-08-22T17:52:09.612Z,26.50
2022-08-22T17:54:48.139Z,26.40
2022-08-22T17:57:30.551Z,26.40
2022-08-22T18:00:15.302Z,26.20
2022-08-22T18:03:01.168Z,26.00
2022-08-22T18:05:59.385Z,25.90
2022-08-22T18:09:13.266Z,25.80
2022-08-22T18:11:57.377Z,25.60
2022-08-22T18:14:41.706Z,25.50
2022-08-22T18:17:41.542Z,25.40
2022-08-22T18:20:33.155Z,25.20
2022-08-22T18:23:34.408Z,25.20
2022-08-22T18:26:28.585Z,25.10
2022-08-22T18:29:16.313Z,25.00
2022-08-22T18:31:54.721Z,24.90
2022-08-22T18:34:40.869Z,24.70
2022-08-22T18:37:43.086Z,24.60
2022-08-22T18:40:27.155Z,24.40
2022-08-22T18:43:13.231Z,24.50
2022-08-22T18:45:45.914Z,24.30
2022-08-22T18:48:54.405Z,24.20
2022-08-22T18:51:35.104Z,24.00
2022-08-22T18:54:05.336Z,24.00
2022-08-22T18:56:38.294Z,23.90
2022-08-22T18:59:16.842Z,23.70
2022-08-22T19:01:56.286Z,23.70
2022-08-22T19:04:44.091Z,23.60
2022-08-22T19:07:41.072Z,23.50
2022-08-22T19:10:32.250Z,23.30
2022-08-22T19:13:26.329Z,23.20
2022-08-22T19:16:25.939Z,23.20
2022-08-22T19:19:01.078Z,23.10
2022-08-22T19:21:53.316Z,23.00
2022-08-22T19:24:20.288Z,22.90
2022-08-22T19:26:51.413Z,22.90
2022-08-22T19:29:18.143Z,22.70
2022-08-22T19:31:52.679Z,22.60
2022-08-22T19:34:34.566Z,22.50
2022-08-22T19:37:30.509Z,22.40
2022-08-22T19:40:45.462Z,22.40
2022-08-22T19:43:24.103Z,22.40
2022-08-22T19:45:54.401Z,22.20
2022-08-22T19:48:46.739Z,22.30
2022-08-22T19:51:19.518Z,22.10
2022-08-22T19:53:56.227Z,22.00
2022-08-22T19:56:37.884Z,22.00
2022-08-22T19:59:20.601Z,21.90
2022-08-22T20:02:14.685Z,21.80
2022-08-22T20:04:48.390Z,21.70
2022-08-22T20:07:25.669Z,21.60
2022-08-22T20:10:25.295Z,21.50
2022-08-22T20:13:07.590Z,21.40
2022-08-22T20:16:03.610Z,21.30
2022-08-22T20:18:55.621Z,21.30
2022-08-22T20:21:53.081Z,21.20
2022-08-22T20:24:43.094Z,21.10
2022-08-22T20:27:31.930Z,21.10
2022-08-22T20:30:10.983Z,21.00
2022-08-22T20:32:45.797Z,21.00
2022-08-22T20:35:21.588Z,20.90
2022-08-22T20:38:06.765Z,21.00
2022-08-22T20:41:11.753Z,21.00
2022-08-22T20:43:52.999Z,21.00
2022-08-22T20:46:43.767Z,20.90
2022-08-22T20:49:31.175Z,20.90
2022-08-22T20:52:00.372Z,20.90
2022-08-22T20:54:31.584Z,20.90
2022-08-22T20:57:10.089Z,20.90
2022-08-22T20:59:42.087Z,20.90
2022-08-22T21:02:20.077Z,20.80
2022-08-22T21:04:56.877Z,20.80
2022-08-22T21:07:29.173Z,20.80
2022-08-22T21:10:33.522Z,20.80
2022-08-22T21:13:16.791Z,20.80
2022-08-22T21:15:55.383Z,20.80
2022-08-22T21:18:35.071Z,20.90
2022-08-22T21:21:22.133Z,21.00
2022-08-22T21:24:04.770Z,21.00
2022-08-22T21:26:38.448Z,21.10
2022-08-22T21:29:08.144Z,21.10
